createdAt,value
2023-05-19T00:00:14.970Z,100074.13
2023-05-19T00:03:22.003Z,100064.84
2023-05-19T00:06:26.995Z,100070.69
2023-05-19T00:09:32.566Z,100063.31
2023-05-19T00:12:37.390Z,100055.44
2023-05-19T00:15:41.685Z,100053.56
2023-05-19T00:18:45.420Z,100051.66
2023-05-19T00:21:49.123Z,100051.91
2023-05-19T00:24:54.057Z,100057.50
2023-05-19T00:27:59.360Z,100055.25
2023-05-19T00:31:03.608Z,100059.44
2023-05-19T00:34:07.363Z,100054.13
2023-05-19T00:37:11.492Z,100048.69
2023-05-19T00:40:17.472Z,100044.59
2023-05-19T00:43:21.296Z,100041.78
2023-05-19T00:46:26.496Z,100043.75
2023-05-19T00:49:30.252Z,100040.59
2023-05-19T00:52:34.157Z,100045.44
2023-05-19T00:55:40.839Z,100048.94
2023-05-19T00:58:45.784Z,100041.09
2023-05-19T01:01:52.204Z,100047.13
2023-05-19T01:04:57.894Z,100042.41
2023-05-19T01:08:01.776Z,100041.63
2023-05-19T01:11:08.066Z,100046.34
2023-05-19T01:14:11.607Z,100043.56
2023-05-19T01:17:23.434Z,100042.53
2023-05-19T01:20:36.513Z,100039.91
2023-05-19T01:23:54.319Z,100042.63
2023-05-19T01:27:42.519Z,100040.63
2023-05-19T01:30:52.832Z,100049.13
2023-05-19T01:33:57.134Z,100041.25
2023-05-19T01:37:03.041Z,100043.34
2023-05-19T01:40:09.377Z,100033.31
2023-05-19T01:43:15.257Z,100032.66
2023-05-19T01:46:23.491Z,100030.97
2023-05-19T01:49:27.094Z,100029.19
2023-05-19T01:52:30.784Z,100032.78
2023-05-19T01:55:34.590Z,100024.91
2023-05-19T01:58:45.836Z,100024.22
2023-05-19T02:01:56.498Z,100025.06
2023-05-19T02:05:10.149Z,100019.59
2023-05-19T02:08:18.291Z,100016.78
2023-05-19T02:11:28.735Z,100016.84
2023-05-19T02:14:40.607Z,100023.88
2023-05-19T02:17:48.520Z,100020.34
2023-05-19T02:20:52.496Z,100024.63
2023-05-19T02:23:56.125Z,100018.38
2023-05-19T02:26:59.787Z,100017.97
2023-05-19T02:30:03.909Z,100018.16
2023-05-19T02:33:11.530Z,100020.53
2023-05-19T02:36:15.274Z,100018.94
2023-05-19T02:39:18.821Z,100015.19
2023-05-19T02:42:24.335Z,100011.44
2023-05-19T02:45:28.885Z,100007.22
2023-05-19T02:48:35.960Z,100004.41
2023-05-19T02:51:40.248Z,100007.28
2023-05-19T02:54:44.359Z,100013.59
2023-05-19T02:57:48.319Z,100014.38
2023-05-19T03:00:52.406Z,100011.41
2023-05-19T03:03:57.620Z,100013.75
2023-05-19T03:07:02.271Z,100011.47
2023-05-19T03:10:06.899Z,100016.47
2023-05-19T03:13:10.876Z,100016.97
2023-05-19T03:16:17.287Z,100008.88
2023-05-19T03:19:22.948Z,100009.06
2023-05-19T03:22:26.752Z,100014.63
2023-05-19T03:25:30.821Z,100012.25
2023-05-19T03:28:36.914Z,100013.06
2023-05-19T03:31:40.399Z,100008.59
2023-05-19T03:34:45.369Z,100006.16
2023-05-19T03:37:51.325Z,100008.00
2023-05-19T03:40:54.905Z,100009.53
2023-05-19T03:43:59.106Z,100003.41
2023-05-19T03:47:02.529Z,100011.09
2023-05-19T03:50:35.376Z,100004.72
2023-05-19T03:53:49.832Z,100001.94
2023-05-19T03:56:53.383Z,100009.31
2023-05-19T03:59:56.885Z,100003.41
2023-05-19T04:03:01.528Z,100007.72
2023-05-19T04:06:06.628Z,100004.41
2023-05-19T04:09:14.195Z,100009.50
2023-05-19T04:12:17.874Z,100009.75
2023-05-19T04:15:22.171Z,100016.09
2023-05-19T04:18:27.597Z,100014.44
2023-05-19T04:21:33.837Z,100015.72
2023-05-19T04:24:37.328Z,100012.09
2023-05-19T04:27:41.590Z,100022.69
2023-05-19T04:30:46.786Z,100022.53
2023-05-19T04:33:50.292Z,100022.75
2023-05-19T04:36:55.771Z,100024.66
2023-05-19T04:39:59.512Z,100019.78
2023-05-19T04:43:04.066Z,100014.66
2023-05-19T04:46:12.219Z,100013.63
2023-05-19T04:49:19.367Z,100012.25
2023-05-19T04:52:24.325Z,100017.09
2023-05-19T04:55:28.136Z,100019.19
2023-05-19T04:58:31.572Z,100026.22
2023-05-19T05:01:40.363Z,100030.03
2023-05-19T05:04:46.661Z,100030.75
2023-05-19T05:07:54.287Z,100020.22
2023-05-19T05:11:00.542Z,100023.00
2023-05-19T05:14:04.586Z,100030.75
2023-05-19T05:17:10.586Z,100028.75
2023-05-19T05:20:15.241Z,100021.47
2023-05-19T05:23:21.155Z,100020.22
2023-05-19T05:26:31.421Z,100028.72
2023-05-19T05:29:34.900Z,100026.09
2023-05-19T05:32:40.605Z,100021.69
2023-05-19T05:35:51.705Z,100027.69
2023-05-19T05:38:56.940Z,100036.13
2023-05-19T05:42:01.407Z,100044.56
2023-05-19T05:45:05.483Z,100043.09
2023-05-19T05:48:09.923Z,100044.25
2023-05-19T05:51:13.881Z,100040.72
2023-05-19T05:54:23.024Z,100030.28
2023-05-19T05:57:27.087Z,100031.53
2023-05-19T06:00:30.882Z,100034.72
2023-05-19T06:03:34.595Z,100040.28
2023-05-19T06:06:43.283Z,100050.28
2023-05-19T06:09:50.190Z,100048.88
2023-05-19T06:12:53.881Z,100046.22
2023-05-19T06:16:00.419Z,100054.59
2023-05-19T06:19:13.204Z,100053.38
2023-05-19T06:22:17.012Z,100049.34
2023-05-19T06:25:23.029Z,100050.41
2023-05-19T06:28:26.698Z,100054.00
2023-05-19T06:31:31.847Z,100053.34
2023-05-19T06:34:42.375Z,100055.03
2023-05-19T06:37:46.408Z,100061.34
2023-05-19T06:40:51.300Z,100058.78
2023-05-19T06:43:55.165Z,100054.53
2023-05-19T06:46:58.712Z,100055.09
2023-05-19T06:50:02.288Z,100052.50
2023-05-19T06:53:09.619Z,100042.88
2023-05-19T06:56:15.087Z,100048.69
2023-05-19T06:59:21.888Z,100055.00
2023-05-19T07:02:26.487Z,100048.47
2023-05-19T07:05:30.594Z,100054.38
2023-05-19T07:08:37.413Z,100060.06
2023-05-19T07:11:44.078Z,100055.59
2023-05-19T07:14:48.069Z,100057.91
2023-05-19T07:17:53.209Z,100052.84
2023-05-19T07:20:58.059Z,100048.69
2023-05-19T07:24:01.952Z,100043.63
2023-05-19T07:27:07.541Z,100054.13
2023-05-19T07:30:11.739Z,100052.16
2023-05-19T07:33:15.305Z,100054.97
2023-05-19T07:36:18.909Z,100050.78
2023-05-19T07:39:22.595Z,100053.28
2023-05-19T07:42:28.179Z,100056.69
2023-05-19T07:45:31.705Z,100058.59
2023-05-19T07:48:35.495Z,100057.47
2023-05-19T07:51:39.096Z,100063.38
2023-05-19T07:54:42.650Z,100060.47
2023-05-19T07:57:47.515Z,100067.25
2023-05-19T08:00:51.074Z,100067.94
2023-05-19T08:03:54.837Z,100060.47
2023-05-19T08:06:58.395Z,100057.91
2023-05-19T08:10:02.189Z,100059.50
2023-05-19T08:13:07.411Z,100059.50
2023-05-19T08:16:11.265Z,100058.69
2023-05-19T08:19:14.839Z,100057.69
2023-05-19T08:22:18.597Z,100065.00
2023-05-19T08:25:22.515Z,100060.84
2023-05-19T08:28:27.505Z,100061.94
2023-05-19T08:31:31.235Z,100060.34
2023-05-19T08:34:34.988Z,100062.91
2023-05-19T08:37:38.793Z,100057.44
2023-05-19T08:40:44.184Z,100054.03
2023-05-19T08:43:50.122Z,100058.47
2023-05-19T08:46:56.260Z,100068.69
2023-05-19T08:50:07.841Z,100064.50
2023-05-19T08:53:31.912Z,100056.13
2023-05-19T08:56:36.824Z,100061.22
2023-05-19T08:59:42.884Z,100046.78
2023-05-19T09:02:55.455Z,100057.81
2023-05-19T09:06:09.999Z,100053.81
2023-05-19T09:09:15.693Z,100051.44
2023-05-19T09:12:19.549Z,100045.84
2023-05-19T09:15:28.548Z,100045.41
2023-05-19T09:18:32.841Z,100050.31
2023-05-19T09:21:36.805Z,100044.94
2023-05-19T09:24:40.822Z,100049.19
2023-05-19T09:27:44.252Z,100048.72
2023-05-19T09:30:49.244Z,100044.97
2023-05-19T09:33:55.550Z,100048.97
2023-05-19T09:37:00.129Z,100047.06
2023-05-19T09:40:06.468Z,100045.78
2023-05-19T09:43:10.199Z,100045.03
2023-05-19T09:46:15.957Z,100044.09
2023-05-19T09:49:23.573Z,100051.34
2023-05-19T09:52:27.643Z,100044.47
2023-05-19T09:55:33.300Z,100039.03
2023-05-19T09:58:37.175Z,100041.03
2023-05-19T10:01:46.558Z,100037.66
2023-05-19T10:04:51.346Z,100039.56
2023-05-19T10:07:59.078Z,100038.47
2023-05-19T10:11:03.689Z,100035.53
2023-05-19T10:14:07.474Z,100029.72
2023-05-19T10:17:13.926Z,100034.56
2023-05-19T10:20:18.661Z,100031.28
2023-05-19T10:23:22.720Z,100037.63
2023-05-19T10:26:27.547Z,100040.59
2023-05-19T10:29:35.633Z,100032.25
2023-05-19T10:32:44.300Z,100025.06
2023-05-19T10:36:11.363Z,100022.63
2023-05-19T10:39:23.439Z,100020.19
2023-05-19T10:42:36.555Z,100012.22
2023-05-19T10:45:47.493Z,100019.34
2023-05-19T10:48:53.754Z,100027.41
2023-05-19T10:52:00.858Z,100026.03
2023-05-19T10:55:09.027Z,100025.03
2023-05-19T10:58:13.128Z,100031.22
2023-05-19T11:01:18.096Z,100037.38
2023-05-19T11:04:49.515Z,100032.88
2023-05-19T11:08:02.290Z,100030.31
2023-05-19T11:11:15.417Z,100029.47
2023-05-19T11:14:20.309Z,100025.59
2023-05-19T11:17:27.533Z,100030.56
2023-05-19T11:20:35.172Z,100029.00
2023-05-19T11:23:40.981Z,100025.75
2023-05-19T11:26:44.914Z,100025.13
2023-05-19T11:29:49.685Z,100021.69
2023-05-19T11:32:55.610Z,100024.31
2023-05-19T11:36:00.784Z,100025.19
2023-05-19T11:39:05.012Z,100018.53
2023-05-19T11:42:10.852Z,100022.97
2023-05-19T11:45:14.538Z,100025.22
2023-05-19T11:48:18.901Z,100032.63
2023-05-19T11:51:24.624Z,100014.66
2023-05-19T11:54:32.363Z,100023.66
2023-05-19T11:57:36.618Z,100019.69
2023-05-19T12:00:41.665Z,100025.66
2023-05-19T12:03:45.387Z,100033.25
2023-05-19T12:06:52.431Z,100028.13
2023-05-19T12:09:58.288Z,100026.88
2023-05-19T12:13:02.269Z,100032.41
2023-05-19T12:16:06.081Z,100030.69
2023-05-19T12:19:10.570Z,100017.66
2023-05-19T12:22:17.419Z,100023.97
2023-05-19T12:25:21.974Z,100018.50
2023-05-19T12:28:25.476Z,100019.16
2023-05-19T12:31:29.195Z,100013.88
2023-05-19T12:34:32.870Z,100019.25
2023-05-19T12:37:42.538Z,100015.16
2023-05-19T12:40:45.988Z,100012.19
2023-05-19T12:43:49.605Z,100014.66
2023-05-19T12:46:53.922Z,100010.59
2023-05-19T12:49:58.435Z,100006.72
2023-05-19T12:53:03.542Z,100010.06
2023-05-19T12:56:14.108Z,100006.63
2023-05-19T12:59:34.800Z,100009.50
2023-05-19T13:02:57.344Z,100007.59
2023-05-19T13:06:01.049Z,100001.59
2023-05-19T13:09:11.735Z,100002.00
2023-05-19T13:12:15.309Z,100011.75
2023-05-19T13:15:19.266Z,100004.91
2023-05-19T13:18:25.877Z,100002.44
2023-05-19T13:21:30.618Z,100000.88
2023-05-19T13:24:36.053Z,99998.25
2023-05-19T13:27:39.629Z,100002.75
2023-05-19T13:30:46.843Z,99997.56
2023-05-19T13:33:50.386Z,99995.72
2023-05-19T13:36:54.181Z,99998.97
2023-05-19T13:39:59.546Z,99987.78
2023-05-19T13:43:03.596Z,99999.56
2023-05-19T13:46:07.754Z,100000.66
2023-05-19T13:49:13.144Z,99994.31
2023-05-19T13:52:17.338Z,99998.91
2023-05-19T13:55:23.352Z,99990.38
2023-05-19T13:58:30.749Z,99997.00
2023-05-19T14:01:34.948Z,99991.94
2023-05-19T14:04:39.311Z,99993.22
2023-05-19T14:07:46.447Z,99999.16
2023-05-19T14:10:52.123Z,99995.81
2023-05-19T14:13:56.376Z,99991.31
2023-05-19T14:17:02.997Z,99989.81
2023-05-19T14:20:07.779Z,99993.78
2023-05-19T14:23:11.822Z,99997.75
2023-05-19T14:26:25.619Z,99995.81
2023-05-19T14:29:31.372Z,100001.34
2023-05-19T14:32:35.221Z,100000.22
2023-05-19T14:35:41.642Z,100002.13
2023-05-19T14:38:45.465Z,100004.06
2023-05-19T14:41:53.175Z,100004.94
2023-05-19T14:44:57.062Z,100004.78
2023-05-19T14:48:00.639Z,100005.13
2023-05-19T14:51:04.134Z,100005.94
2023-05-19T14:54:08.891Z,100006.66
2023-05-19T14:57:14.243Z,100007.09
2023-05-19T15:00:19.102Z,100005.41
2023-05-19T15:03:23.375Z,100009.03
2023-05-19T15:06:27.045Z,100014.09
2023-05-19T15:09:30.819Z,100010.84
2023-05-19T15:12:36.343Z,100016.38
2023-05-19T15:15:39.838Z,100016.94
2023-05-19T15:18:43.649Z,100020.41
2023-05-19T15:21:47.368Z,100021.78
2023-05-19T15:24:50.915Z,100024.97
2023-05-19T15:27:56.286Z,100025.03
2023-05-19T15:31:00.009Z,100016.25
2023-05-19T15:34:03.464Z,100011.09
2023-05-19T15:37:07.287Z,100017.72
2023-05-19T15:40:13.770Z,100006.25
2023-05-19T15:43:20.102Z,99998.63
2023-05-19T15:46:23.655Z,100004.66
2023-05-19T15:49:27.472Z,99990.03
2023-05-19T15:52:30.947Z,99986.09
2023-05-19T15:55:35.005Z,99995.25
2023-05-19T15:58:43.659Z,99997.00
2023-05-19T16:01:47.469Z,99985.50
2023-05-19T16:04:51.096Z,99996.25
2023-05-19T16:07:54.576Z,99996.47
2023-05-19T16:10:58.316Z,100000.31
2023-05-19T16:14:03.332Z,99994.72
2023-05-19T16:17:12.334Z,100002.03
2023-05-19T16:20:15.939Z,100001.09
2023-05-19T16:23:19.564Z,100000.34
2023-05-19T16:26:23.250Z,99995.56
2023-05-19T16:29:28.221Z,100003.06
2023-05-19T16:32:31.708Z,100000.41
2023-05-19T16:35:36.506Z,100002.56
2023-05-19T16:38:39.960Z,99998.16
2023-05-19T16:41:43.558Z,99998.69
2023-05-19T16:44:48.358Z,99995.16
2023-05-19T16:47:54.066Z,100001.16
2023-05-19T16:50:58.129Z,100000.06
2023-05-19T16:54:01.711Z,99998.34
2023-05-19T16:57:07.548Z,100000.28
2023-05-19T17:00:14.979Z,100000.25
2023-05-19T17:03:18.619Z,100003.06
2023-05-19T17:06:22.416Z,100008.38
2023-05-19T17:09:26.555Z,100004.91
2023-05-19T17:12:30.186Z,100009.09
2023-05-19T17:15:35.611Z,100012.19
2023-05-19T17:18:39.632Z,100012.97
2023-05-19T17:21:43.309Z,100020.38
2023-05-19T17:24:47.363Z,100011.88
2023-05-19T17:27:59.677Z,100005.88
2023-05-19T17:31:11.015Z,100005.47
2023-05-19T17:34:15.528Z,100007.50
2023-05-19T17:37:23.542Z,100008.56
2023-05-19T17:40:27.176Z,100004.47
2023-05-19T17:43:30.890Z,100009.78
2023-05-19T17:46:37.044Z,100014.44
2023-05-19T17:49:41.541Z,100010.72
2023-05-19T17:52:45.770Z,100006.44
2023-05-19T17:55:53.256Z,100012.56
2023-05-19T17:59:00.126Z,100012.19
2023-05-19T18:02:06.120Z,100010.41
2023-05-19T18:05:15.693Z,100010.19
2023-05-19T18:08:20.121Z,100004.78
2023-05-19T18:11:27.539Z,100011.94
2023-05-19T18:14:31.209Z,100004.22
2023-05-19T18:17:37.572Z,100006.78
2023-05-19T18:20:44.387Z,100008.13
2023-05-19T18:23:52.125Z,100015.66
2023-05-19T18:26:55.672Z,100015.03
2023-05-19T18:29:59.549Z,100015.81
2023-05-19T18:33:04.797Z,100020.06
2023-05-19T18:36:09.407Z,100024.19
2023-05-19T18:39:15.832Z,100026.47
2023-05-19T18:42:19.524Z,100034.47
2023-05-19T18:45:25.463Z,100038.47
2023-05-19T18:48:31.438Z,100035.53
2023-05-19T18:51:36.322Z,100043.97
2023-05-19T18:54:42.136Z,100038.84
2023-05-19T18:57:46.248Z,100041.41
2023-05-19T19:00:51.903Z,100038.94
2023-05-19T19:03:56.965Z,100042.09
2023-05-19T19:07:00.493Z,100044.66
2023-05-19T19:10:04.142Z,100041.69
2023-05-19T19:13:07.722Z,100042.00
2023-05-19T19:16:11.245Z,100051.69
2023-05-19T19:19:17.003Z,100055.59
2023-05-19T19:22:27.942Z,100050.47
2023-05-19T19:25:31.477Z,100061.06
2023-05-19T19:28:35.524Z,100051.81
2023-05-19T19:31:39.023Z,100051.81
2023-05-19T19:34:47.027Z,100060.03
2023-05-19T19:37:53.237Z,100055.06
2023-05-19T19:40:57.254Z,100054.75
2023-05-19T19:44:00.700Z,100061.44
2023-05-19T19:47:07.106Z,100056.03
2023-05-19T19:50:15.766Z,100060.50
2023-05-19T19:53:19.281Z,100059.53
2023-05-19T19:56:27.656Z,100061.50
2023-05-19T19:59:31.597Z,100065.97
2023-05-19T20:02:41.016Z,100068.38
2023-05-19T20:05:57.918Z,100072.97
2023-05-19T20:09:06.916Z,100069.53
2023-05-19T20:12:13.825Z,100070.28
2023-05-19T20:15:17.846Z,100068.66
2023-05-19T20:18:21.539Z,100067.63
2023-05-19T20:21:29.079Z,100058.09
2023-05-19T20:24:32.999Z,100065.03
2023-05-19T20:27:36.573Z,100066.56
2023-05-19T20:30:42.929Z,100059.22
2023-05-19T20:33:49.630Z,100069.97
2023-05-19T20:36:55.583Z,100064.97
2023-05-19T20:40:01.959Z,100062.00
2023-05-19T20:43:05.543Z,100059.19
2023-05-19T20:46:11.666Z,100062.50
2023-05-19T20:49:15.668Z,100058.53
2023-05-19T20:52:21.204Z,100055.28
2023-05-19T20:55:24.798Z,100046.41
2023-05-19T20:58:30.412Z,100053.34
2023-05-19T21:01:35.152Z,100053.06
2023-05-19T21:04:39.858Z,100049.63
2023-05-19T21:07:44.847Z,100051.34
2023-05-19T21:10:49.155Z,100058.81
2023-05-19T21:13:52.643Z,100052.69
2023-05-19T21:16:57.945Z,100056.59
2023-05-19T21:20:02.196Z,100044.84
2023-05-19T21:24:03.256Z,100050.19
2023-05-19T21:27:08.719Z,100053.44
2023-05-19T21:30:13.660Z,100059.72
2023-05-19T21:33:20.425Z,100064.47
2023-05-19T21:36:26.497Z,100058.69
2023-05-19T21:39:37.675Z,100058.34
2023-05-19T21:42:43.046Z,100063.16
2023-05-19T21:45:46.702Z,100053.16
2023-05-19T21:48:53.088Z,100051.06
2023-05-19T21:51:57.897Z,100060.34
2023-05-19T21:55:03.303Z,100060.13
2023-05-19T21:58:10.686Z,100059.66
2023-05-19T22:01:14.460Z,100062.19
2023-05-19T22:04:18.812Z,100057.91
2023-05-19T22:07:27.133Z,100056.50
2023-05-19T22:10:33.138Z,100056.94
2023-05-19T22:13:41.349Z,100059.06
2023-05-19T22:16:45.116Z,100051.38
2023-05-19T22:19:48.864Z,100057.97
2023-05-19T22:22:52.693Z,100046.44
2023-05-19T22:25:56.198Z,100050.63
2023-05-19T22:29:01.744Z,100051.28
2023-05-19T22:32:06.390Z,100048.53
2023-05-19T22:35:12.477Z,100049.84
2023-05-19T22:38:15.927Z,100047.69
2023-05-19T22:41:19.566Z,100047.00
2023-05-19T22:44:24.499Z,100048.78
2023-05-19T22:47:30.109Z,100043.16
2023-05-19T22:50:35.396Z,100040.53
2023-05-19T22:53:39.202Z,100041.13
2023-05-19T22:56:46.373Z,100036.41
2023-05-19T22:59:52.302Z,100028.66
2023-05-19T23:02:56.106Z,100023.56
2023-05-19T23:06:00.218Z,100028.63
2023-05-19T23:09:04.509Z,100025.09
2023-05-19T23:12:08.663Z,100022.91
2023-05-19T23:15:14.096Z,100028.59
2023-05-19T23:18:17.949Z,100021.63
2023-05-19T23:21:21.901Z,100026.38
2023-05-19T23:24:25.889Z,100030.53
2023-05-19T23:27:29.809Z,100029.66
2023-05-19T23:30:38.457Z,100024.44
2023-05-19T23:33:42.077Z,100027.91
2023-05-19T23:36:45.730Z,100035.69
2023-05-19T23:39:49.125Z,100032.16
2023-05-19T23:42:52.770Z,100031.56
2023-05-19T23:45:58.165Z,100030.88
2023-05-19T23:49:02.177Z,100028.63
2023-05-19T23:52:06.034Z,100022.97
2023-05-19T23:55:12.752Z,100023.75
2023-05-19T23:58:16.734Z,100022.81
